createdAt,value
2023-02-13T00:02:25.204Z,103165.19
2023-02-13T00:04:51.931Z,103171.13
2023-02-13T00:07:18.516Z,103173.84
2023-02-13T00:09:45.017Z,103170.22
2023-02-13T00:12:11.518Z,103172.69
2023-02-13T00:14:39.125Z,103166.50
2023-02-13T00:17:06.601Z,103164.69
2023-02-13T00:19:33.433Z,103163.66
2023-02-13T00:21:59.922Z,103172.03
2023-02-13T00:24:26.666Z,103166.63
2023-02-13T00:26:53.157Z,103176.06
2023-02-13T00:29:19.811Z,103170.88
2023-02-13T00:31:46.491Z,103168.31
2023-02-13T00:34:13.133Z,103163.91
2023-02-13T00:36:39.731Z,103169.09
2023-02-13T00:39:06.240Z,103169.75
2023-02-13T00:41:32.814Z,103165.22
2023-02-13T00:43:59.373Z,103158.22
2023-02-13T00:46:25.946Z,103157.44
2023-02-13T00:48:52.470Z,103153.84
2023-02-13T00:51:18.971Z,103163.41
2023-02-13T00:53:45.442Z,103157.31
2023-02-13T00:56:12.022Z,103157.94
2023-02-13T00:58:39.226Z,103164.97
2023-02-13T01:01:05.948Z,103156.91
2023-02-13T01:03:32.508Z,103157.44
2023-02-13T01:05:59.234Z,103166.13
2023-02-13T01:08:28.253Z,103165.09
2023-02-13T01:10:55.688Z,103162.38
2023-02-13T01:13:22.467Z,103156.94
2023-02-13T01:15:49.709Z,103154.19
2023-02-13T01:18:19.064Z,103157.69
2023-02-13T01:20:46.500Z,103159.13
2023-02-13T01:23:13.135Z,103153.81
2023-02-13T01:25:41.608Z,103161.59
2023-02-13T01:28:08.338Z,103157.97
2023-02-13T01:30:34.998Z,103156.41
2023-02-13T01:33:01.680Z,103152.81
2023-02-13T01:35:28.222Z,103147.63
2023-02-13T01:37:54.975Z,103148.41
2023-02-13T01:40:21.657Z,103149.19
2023-02-13T01:42:48.196Z,103152.81
2023-02-13T01:45:27.482Z,103137.94
2023-02-13T01:47:56.722Z,103135.22
2023-02-13T01:50:29.070Z,103134.44
2023-02-13T01:53:09.552Z,103139.63
2023-02-13T01:55:43.701Z,103133.25
2023-02-13T01:58:12.814Z,103134.19
2023-02-13T02:00:39.901Z,103127.97
2023-02-13T02:03:13.762Z,103133.91
2023-02-13T02:05:40.345Z,103135.59
2023-02-13T02:08:10.510Z,103122.66
2023-02-13T02:10:37.497Z,103132.09
2023-02-13T02:13:18.603Z,103131.31
2023-02-13T02:15:45.919Z,103132.09
2023-02-13T02:18:17.561Z,103126.94
2023-02-13T02:21:05.462Z,103128.75
2023-02-13T02:23:50.564Z,103123.44
2023-02-13T02:26:40.773Z,103126.81
2023-02-13T02:29:16.257Z,103125.00
2023-02-13T02:32:08.327Z,103122.28
2023-02-13T02:34:45.509Z,103133.41
2023-02-13T02:37:29.505Z,103130.56
2023-02-13T02:40:51.518Z,103126.91
2023-02-13T02:43:41.126Z,103131.06
2023-02-13T02:46:24.419Z,103122.16
2023-02-13T02:49:16.264Z,103122.94
2023-02-13T02:52:20.065Z,103127.97
2023-02-13T02:55:06.687Z,103126.03
2023-02-13T02:57:57.373Z,103125.91
2023-02-13T03:00:44.580Z,103127.44
2023-02-13T03:03:38.413Z,103134.28
2023-02-13T03:06:14.038Z,103131.56
2023-02-13T03:09:02.343Z,103125.63
2023-02-13T03:11:47.511Z,103118.16
2023-02-13T03:14:17.938Z,103126.16
2023-02-13T03:17:03.004Z,103120.34
2023-02-13T03:20:20.841Z,103118.53
2023-02-13T03:22:50.340Z,103117.63
2023-02-13T03:25:51.934Z,103122.78
2023-02-13T03:28:46.621Z,103126.16
2023-02-13T03:31:27.486Z,103128.63
2023-02-13T03:34:10.912Z,103120.75
2023-02-13T03:37:07.194Z,103125.00
2023-02-13T03:39:43.649Z,103117.75
2023-02-13T03:42:23.718Z,103122.78
2023-02-13T03:45:14.576Z,103127.81
2023-02-13T03:47:42.600Z,103135.44
2023-02-13T03:50:10.087Z,103130.53
2023-02-13T03:52:46.135Z,103130.41
2023-02-13T03:55:34.162Z,103135.44
2023-02-13T03:58:24.296Z,103139.59
2023-02-13T04:00:53.141Z,103140.34
2023-02-13T04:03:26.432Z,103139.59
2023-02-13T04:06:09.724Z,103130.28
2023-02-13T04:08:36.288Z,103132.09
2023-02-13T04:11:15.657Z,103142.56
2023-02-13T04:13:59.828Z,103138.16
2023-02-13T04:16:36.475Z,103141.66
2023-02-13T04:19:03.804Z,103135.69
2023-02-13T04:21:38.851Z,103134.78
2023-02-13T04:24:05.579Z,103135.69
2023-02-13T04:26:40.633Z,103141.00
2023-02-13T04:29:10.168Z,103135.94
2023-02-13T04:31:37.903Z,103144.78
2023-02-13T04:34:04.414Z,103135.19
2023-02-13T04:36:30.957Z,103136.88
2023-02-13T04:38:58.450Z,103137.75
2023-02-13T04:41:25.054Z,103137.03
2023-02-13T04:43:52.494Z,103131.69
2023-02-13T04:46:19.565Z,103123.16
2023-02-13T04:48:46.057Z,103133.38
2023-02-13T04:51:12.738Z,103132.34
2023-02-13T04:53:39.294Z,103130.53
2023-02-13T04:56:05.970Z,103128.72
2023-02-13T04:58:32.468Z,103125.09
2023-02-13T05:00:59.338Z,103127.56
2023-02-13T05:03:26.039Z,103119.56
2023-02-13T05:05:52.511Z,103126.25
2023-02-13T05:08:18.988Z,103123.66
2023-02-13T05:10:45.455Z,103132.19
2023-02-13T05:13:12.300Z,103119.13
2023-02-13T05:15:38.922Z,103122.50
2023-02-13T05:18:05.652Z,103126.13
2023-02-13T05:20:32.206Z,103127.78
2023-02-13T05:23:28.464Z,103127.94
2023-02-13T05:25:54.959Z,103132.19
2023-02-13T05:28:40.139Z,103130.25
2023-02-13T05:31:07.831Z,103132.84
2023-02-13T05:33:34.379Z,103128.44
2023-02-13T05:36:00.894Z,103130.25
2023-02-13T05:38:27.558Z,103128.44
2023-02-13T05:40:54.090Z,103129.34
2023-02-13T05:43:20.852Z,103123.41
2023-02-13T05:45:48.429Z,103113.84
2023-02-13T05:48:14.932Z,103112.94
2023-02-13T05:50:41.395Z,103123.41
2023-02-13T05:53:07.965Z,103119.13
2023-02-13T05:55:34.481Z,103123.28
2023-02-13T05:58:00.964Z,103125.84
2023-02-13T06:00:27.572Z,103130.13
2023-02-13T06:02:54.418Z,103123.16
2023-02-13T06:05:20.990Z,103122.25
2023-02-13T06:07:47.595Z,103126.38
2023-02-13T06:10:14.075Z,103127.16
2023-02-13T06:12:40.605Z,103127.16
2023-02-13T06:15:07.658Z,103133.88
2023-02-13T06:17:34.242Z,103134.78
2023-02-13T06:20:00.820Z,103138.13
2023-02-13T06:22:27.385Z,103139.03
2023-02-13T06:24:53.957Z,103133.59
2023-02-13T06:27:20.529Z,103133.59
2023-02-13T06:29:48.315Z,103129.94
2023-02-13T06:32:14.868Z,103129.03
2023-02-13T06:34:41.423Z,103136.91
2023-02-13T06:37:07.931Z,103127.34
2023-02-13T06:39:34.715Z,103141.94
2023-02-13T06:42:01.210Z,103137.56
2023-02-13T06:44:27.718Z,103147.25
2023-02-13T06:46:54.179Z,103144.53
2023-02-13T06:49:20.702Z,103145.56
2023-02-13T06:51:47.220Z,103152.16
2023-02-13T06:54:13.910Z,103154.59
2023-02-13T06:56:42.461Z,103158.84
2023-02-13T06:59:09.333Z,103169.19
2023-02-13T07:01:36.034Z,103158.84
2023-02-13T07:04:02.629Z,103167.66
2023-02-13T07:06:29.184Z,103175.41
2023-02-13T07:08:56.126Z,103169.47
2023-02-13T07:11:24.678Z,103169.47
2023-02-13T07:13:51.330Z,103173.06
2023-02-13T07:16:17.910Z,103180.81
2023-02-13T07:18:44.583Z,103173.84
2023-02-13T07:21:11.493Z,103166.88
2023-02-13T07:23:38.292Z,103173.06
2023-02-13T07:26:05.981Z,103167.91
2023-02-13T07:28:32.838Z,103162.00
2023-02-13T07:31:04.471Z,103169.75
2023-02-13T07:33:31.255Z,103170.66
2023-02-13T07:35:57.927Z,103181.88
2023-02-13T07:38:24.486Z,103181.88
2023-02-13T07:40:51.228Z,103181.88
2023-02-13T07:43:17.900Z,103181.16
2023-02-13T07:45:44.546Z,103179.31
2023-02-13T07:48:11.152Z,103182.78
2023-02-13T07:50:37.707Z,103183.75
2023-02-13T07:53:04.273Z,103180.22
2023-02-13T07:55:32.830Z,103181.88
2023-02-13T07:58:00.500Z,103180.22
2023-02-13T08:00:27.169Z,103192.53
2023-02-13T08:02:53.720Z,103183.22
2023-02-13T08:05:20.239Z,103175.47
2023-02-13T08:07:46.858Z,103179.72
2023-02-13T08:10:32.632Z,103191.22
2023-02-13T08:12:59.390Z,103173.03
2023-02-13T08:15:26.237Z,103178.19
2023-02-13T08:17:52.787Z,103181.03
2023-02-13T08:20:19.577Z,103187.09
2023-02-13T08:22:46.122Z,103193.31
2023-02-13T08:25:13.274Z,103191.75
2023-02-13T08:27:39.790Z,103184.16
2023-02-13T08:30:07.086Z,103183.50
2023-02-13T08:32:44.826Z,103187.91
2023-02-13T08:35:14.992Z,103184.69
2023-02-13T08:37:41.485Z,103199.28
2023-02-13T08:40:11.388Z,103193.34
2023-02-13T08:42:38.456Z,103192.56
2023-02-13T08:45:05.963Z,103191.00
2023-02-13T08:47:32.722Z,103186.63
2023-02-13T08:49:59.375Z,103190.09
2023-02-13T08:52:25.978Z,103186.50
2023-02-13T08:54:52.593Z,103192.69
2023-02-13T08:57:19.144Z,103197.22
2023-02-13T08:59:58.122Z,103193.38
2023-02-13T09:02:24.704Z,103196.09
2023-02-13T09:04:51.288Z,103192.72
2023-02-13T09:07:17.821Z,103199.06
2023-02-13T09:09:44.367Z,103203.44
2023-02-13T09:12:10.915Z,103205.13
2023-02-13T09:14:44.757Z,103202.53
2023-02-13T09:17:11.340Z,103201.75
2023-02-13T09:19:38.155Z,103195.81
2023-02-13T09:22:04.712Z,103199.59
2023-02-13T09:24:31.202Z,103197.28
2023-02-13T09:26:57.911Z,103191.31
2023-02-13T09:29:24.472Z,103196.75
2023-02-13T09:31:51.486Z,103195.97
2023-02-13T09:34:19.048Z,103194.69
2023-02-13T09:36:45.613Z,103193.16
2023-02-13T09:39:12.136Z,103200.38
2023-02-13T09:41:41.260Z,103189.50
2023-02-13T09:44:35.945Z,103202.59
2023-02-13T09:47:37.769Z,103201.03
2023-02-13T09:50:22.549Z,103191.84
2023-02-13T09:52:51.904Z,103195.47
2023-02-13T09:55:21.540Z,103198.19
2023-02-13T09:58:07.478Z,103204.53
2023-02-13T10:00:46.686Z,103196.00
2023-02-13T10:03:16.323Z,103199.63
2023-02-13T10:05:48.204Z,103192.91
2023-02-13T10:08:39.170Z,103198.31
2023-02-13T10:11:36.646Z,103200.13
2023-02-13T10:14:17.620Z,103206.47
2023-02-13T10:17:01.312Z,103196.09
2023-02-13T10:19:47.263Z,103209.16
2023-02-13T10:22:17.350Z,103197.28
2023-02-13T10:24:50.732Z,103195.72
2023-02-13T10:27:22.252Z,103199.09
2023-02-13T10:30:12.607Z,103189.78
2023-02-13T10:33:18.405Z,103191.59
2023-02-13T10:35:48.842Z,103189.00
2023-02-13T10:38:17.881Z,103184.84
2023-02-13T10:41:25.457Z,103184.44
2023-02-13T10:44:19.959Z,103185.38
2023-02-13T10:47:25.946Z,103181.47
2023-02-13T10:50:27.299Z,103173.97
2023-02-13T10:53:22.415Z,103179.25
2023-02-13T10:56:01.529Z,103171.63
2023-02-13T10:58:43.096Z,103169.16
2023-02-13T11:01:31.338Z,103168.75
2023-02-13T11:04:12.620Z,103158.66
2023-02-13T11:07:00.139Z,103166.94
2023-02-13T11:09:27.500Z,103161.22
2023-02-13T11:11:54.404Z,103151.34
2023-02-13T11:14:23.560Z,103155.88
2023-02-13T11:16:56.456Z,103151.88
2023-02-13T11:19:30.911Z,103153.91
2023-02-13T11:22:36.421Z,103155.94
2023-02-13T11:25:22.576Z,103147.41
2023-02-13T11:27:54.282Z,103146.63
2023-02-13T11:30:23.948Z,103146.09
2023-02-13T11:33:04.030Z,103143.50
2023-02-13T11:35:36.732Z,103145.31
2023-02-13T11:38:24.206Z,103142.06
2023-02-13T11:41:06.822Z,103136.22
2023-02-13T11:43:44.592Z,103139.19
2023-02-13T11:46:19.785Z,103143.44
2023-02-13T11:48:56.898Z,103140.84
2023-02-13T11:51:38.704Z,103147.31
2023-02-13T11:54:05.605Z,103141.34
2023-02-13T11:57:04.117Z,103144.84
2023-02-13T11:59:34.283Z,103155.09
2023-02-13T12:02:21.955Z,103152.63
2023-02-13T12:05:20.441Z,103148.50
2023-02-13T12:07:47.401Z,103150.28
2023-02-13T12:10:30.008Z,103144.44
2023-02-13T12:12:59.444Z,103142.41
2023-02-13T12:15:28.723Z,103141.06
2023-02-13T12:18:29.741Z,103135.13
2023-02-13T12:21:02.149Z,103136.16
2023-02-13T12:23:45.601Z,103138.97
2023-02-13T12:26:26.878Z,103127.03
2023-02-13T12:29:09.239Z,103120.41
2023-02-13T12:31:55.589Z,103127.16
2023-02-13T12:34:52.332Z,103123.09
2023-02-13T12:37:45.503Z,103116.13
2023-02-13T12:40:24.686Z,103109.41
2023-02-13T12:43:04.173Z,103113.13
2023-02-13T12:45:58.273Z,103106.03
2023-02-13T12:48:31.111Z,103099.16
2023-02-13T12:51:19.334Z,103095.88
2023-02-13T12:53:56.751Z,103095.22
2023-02-13T12:56:33.325Z,103095.22
2023-02-13T12:59:21.508Z,103087.53
2023-02-13T13:02:22.276Z,103089.56
2023-02-13T13:05:17.580Z,103095.66
2023-02-13T13:07:48.403Z,103086.19
2023-02-13T13:10:32.694Z,103089.84
2023-02-13T13:13:17.874Z,103088.16
2023-02-13T13:15:57.103Z,103096.16
2023-02-13T13:18:36.252Z,103094.69
2023-02-13T13:21:37.050Z,103090.53
2023-02-13T13:24:27.155Z,103096.72
2023-02-13T13:26:57.363Z,103090.78
2023-02-13T13:29:28.032Z,103088.19
2023-02-13T13:31:58.665Z,103088.41
2023-02-13T13:34:26.799Z,103085.03
2023-02-13T13:37:05.372Z,103094.63
2023-02-13T13:39:47.851Z,103086.84
2023-02-13T13:42:19.809Z,103085.16
2023-02-13T13:45:22.716Z,103086.06
2023-02-13T13:47:57.926Z,103078.94
2023-02-13T13:50:26.723Z,103077.47
2023-02-13T13:53:11.964Z,103082.09
2023-02-13T13:55:50.561Z,103074.31
2023-02-13T13:58:33.936Z,103078.72
2023-02-13T14:01:30.384Z,103083.78
2023-02-13T14:03:58.998Z,103075.91
2023-02-13T14:06:48.587Z,103084.69
2023-02-13T14:09:41.806Z,103077.94
2023-02-13T14:12:34.269Z,103080.66
2023-02-13T14:15:00.924Z,103074.81
2023-02-13T14:17:45.922Z,103078.41
2023-02-13T14:20:26.503Z,103078.19
2023-02-13T14:22:53.211Z,103079.78
2023-02-13T14:25:25.351Z,103088.31
2023-02-13T14:28:02.960Z,103085.97
2023-02-13T14:30:36.019Z,103068.59
2023-02-13T14:33:22.873Z,103070.28
2023-02-13T14:36:00.356Z,103064.22
2023-02-13T14:38:27.928Z,103071.16
2023-02-13T14:40:55.325Z,103081.94
2023-02-13T14:43:23.346Z,103086.13
2023-02-13T14:45:55.964Z,103090.53
2023-02-13T14:48:29.578Z,103089.84
2023-02-13T14:50:57.710Z,103087.81
2023-02-13T14:53:29.031Z,103083.53
2023-02-13T14:56:25.139Z,103086.13
2023-02-13T14:58:51.580Z,103082.53
2023-02-13T15:01:29.578Z,103072.94
2023-02-13T15:04:32.424Z,103071.13
2023-02-13T15:07:02.403Z,103073.59
2023-02-13T15:09:38.893Z,103070.91
2023-02-13T15:12:25.344Z,103060.53
2023-02-13T15:14:51.906Z,103062.09
2023-02-13T15:17:21.123Z,103064.56
2023-02-13T15:19:51.771Z,103057.56
2023-02-13T15:22:22.531Z,103058.34
2023-02-13T15:24:50.118Z,103061.72
2023-02-13T15:27:34.375Z,103051.38
2023-02-13T15:30:16.207Z,103046.28
2023-02-13T15:32:42.793Z,103045.50
2023-02-13T15:35:33.035Z,103044.59
2023-02-13T15:38:00.538Z,103046.28
2023-02-13T15:40:29.996Z,103045.38
2023-02-13T15:42:57.675Z,103044.50
2023-02-13T15:45:26.742Z,103042.56
2023-02-13T15:47:53.637Z,103044.25
2023-02-13T15:50:32.059Z,103039.97
2023-02-13T15:53:01.060Z,103038.84
2023-02-13T15:55:30.151Z,103031.88
2023-02-13T15:57:58.754Z,103025.78
2023-02-13T16:00:28.741Z,103027.34
2023-02-13T16:02:57.537Z,103030.84
2023-02-13T16:05:39.519Z,103026.44
2023-02-13T16:08:30.214Z,103029.78
2023-02-13T16:11:15.460Z,103033.97
2023-02-13T16:14:11.109Z,103034.53
2023-02-13T16:16:49.816Z,103028.22
2023-02-13T16:19:29.947Z,103027.31
2023-02-13T16:21:58.999Z,103024.44
2023-02-13T16:24:26.684Z,103021.09
2023-02-13T16:26:53.797Z,103026.28
2023-02-13T16:29:22.937Z,103017.84
2023-02-13T16:31:50.577Z,103027.31
2023-02-13T16:34:29.246Z,103024.59
2023-02-13T16:36:57.292Z,103025.34
2023-02-13T16:39:29.117Z,103022.53
2023-02-13T16:41:57.311Z,103024.75
2023-02-13T16:44:24.869Z,103032.41
2023-02-13T16:46:54.188Z,103035.66
2023-02-13T16:49:22.846Z,103042.38
2023-02-13T16:51:59.025Z,103043.97
2023-02-13T16:54:29.701Z,103042.03
2023-02-13T16:56:59.396Z,103047.09
2023-02-13T16:59:28.946Z,103057.13
2023-02-13T17:02:14.469Z,103053.50
2023-02-13T17:04:57.215Z,103064.50
2023-02-13T17:07:28.737Z,103062.69
2023-02-13T17:10:04.657Z,103062.47
2023-02-13T17:12:35.964Z,103063.25
2023-02-13T17:15:02.750Z,103069.22
2023-02-13T17:17:31.700Z,103063.81
2023-02-13T17:20:02.354Z,103070.78
2023-02-13T17:22:36.423Z,103066.28
2023-02-13T17:25:11.563Z,103064.47
2023-02-13T17:27:39.244Z,103068.47
2023-02-13T17:30:06.520Z,103063.19
2023-02-13T17:32:34.147Z,103065.53
2023-02-13T17:35:01.684Z,103066.19
2023-02-13T17:37:30.136Z,103061.00
2023-02-13T17:39:58.927Z,103058.31
2023-02-13T17:42:28.271Z,103055.59
2023-02-13T17:44:58.700Z,103062.59
2023-02-13T17:47:25.908Z,103054.66
2023-02-13T17:49:59.173Z,103058.19
2023-02-13T17:52:31.513Z,103054.03
2023-02-13T17:54:58.103Z,103052.34
2023-02-13T17:57:24.783Z,103050.66
2023-02-13T17:59:51.322Z,103054.03
2023-02-13T18:02:20.814Z,103053.75
2023-02-13T18:04:48.452Z,103045.88
2023-02-13T18:07:17.880Z,103047.44
2023-02-13T18:09:44.765Z,103053.53
2023-02-13T18:12:23.025Z,103051.59
2023-02-13T18:14:50.394Z,103062.75
2023-02-13T18:17:17.663Z,103058.22
2023-02-13T18:19:44.743Z,103058.00
2023-02-13T18:22:19.483Z,103062.88
2023-02-13T18:24:46.077Z,103055.00
2023-02-13T18:27:12.782Z,103061.75
2023-02-13T18:29:39.652Z,103059.94
2023-02-13T18:32:10.200Z,103061.38
2023-02-13T18:34:38.346Z,103063.97
2023-02-13T18:37:07.011Z,103065.53
2023-02-13T18:39:33.921Z,103061.16
2023-02-13T18:42:00.532Z,103061.91
2023-02-13T18:44:28.850Z,103063.47
2023-02-13T18:46:56.025Z,103063.22
2023-02-13T18:49:22.881Z,103053.78
2023-02-13T18:51:49.701Z,103058.03
2023-02-13T18:54:18.035Z,103059.59
2023-02-13T18:56:45.715Z,103058.59
2023-02-13T18:59:12.394Z,103050.81
2023-02-13T19:01:39.495Z,103046.44
2023-02-13T19:04:06.665Z,103046.44
2023-02-13T19:06:35.086Z,103046.31
2023-02-13T19:09:01.803Z,103040.06
2023-02-13T19:11:28.542Z,103031.41
2023-02-13T19:13:56.850Z,103033.22
2023-02-13T19:16:24.526Z,103042.81
2023-02-13T19:18:57.312Z,103037.38
2023-02-13T19:21:29.933Z,103036.47
2023-02-13T19:23:56.878Z,103029.59
2023-02-13T19:26:25.669Z,103033.63
2023-02-13T19:28:52.730Z,103043.19
2023-02-13T19:31:25.495Z,103035.31
2023-02-13T19:33:52.539Z,103035.44
2023-02-13T19:36:22.795Z,103036.22
2023-02-13T19:38:54.614Z,103041.28
2023-02-13T19:41:22.715Z,103035.97
2023-02-13T19:43:53.589Z,103038.56
2023-02-13T19:46:23.184Z,103035.84
2023-02-13T19:48:50.463Z,103030.44
2023-02-13T19:51:20.422Z,103031.97
2023-02-13T19:53:48.326Z,103029.03
2023-02-13T19:56:15.009Z,103029.56
2023-02-13T19:58:42.652Z,103028.38
2023-02-13T20:01:18.039Z,103026.31
2023-02-13T20:03:44.577Z,103035.66
2023-02-13T20:06:17.144Z,103033.34
2023-02-13T20:08:44.799Z,103036.44
2023-02-13T20:11:12.811Z,103041.88
2023-02-13T20:13:39.775Z,103043.94
2023-02-13T20:16:07.957Z,103045.00
2023-02-13T20:18:35.577Z,103044.47
2023-02-13T20:21:10.244Z,103042.94
2023-02-13T20:23:37.336Z,103044.97
2023-02-13T20:26:05.398Z,103042.66
2023-02-13T20:28:32.206Z,103045.44
2023-02-13T20:30:59.344Z,103043.13
2023-02-13T20:33:26.924Z,103042.59
2023-02-13T20:35:53.438Z,103042.06
2023-02-13T20:38:19.999Z,103051.22
2023-02-13T20:40:47.540Z,103054.31
2023-02-13T20:43:14.257Z,103048.75
2023-02-13T20:45:40.774Z,103052.59
2023-02-13T20:48:07.482Z,103055.69
2023-02-13T20:50:34.070Z,103066.66
2023-02-13T20:53:00.796Z,103065.63
2023-02-13T20:55:27.433Z,103069.75
2023-02-13T20:57:54.293Z,103068.84
2023-02-13T21:00:21.180Z,103061.88
2023-02-13T21:02:47.810Z,103070.66
2023-02-13T21:05:14.427Z,103069.63
2023-02-13T21:07:41.040Z,103072.22
2023-02-13T21:10:07.905Z,103079.19
2023-02-13T21:12:35.032Z,103072.97
2023-02-13T21:15:01.739Z,103066.75
2023-02-13T21:17:28.238Z,103075.28
2023-02-13T21:19:54.906Z,103068.94
2023-02-13T21:22:21.573Z,103071.41
2023-02-13T21:24:49.821Z,103065.97
2023-02-13T21:27:16.371Z,103075.78
2023-02-13T21:29:42.979Z,103074.75
2023-02-13T21:32:09.847Z,103072.81
2023-02-13T21:34:36.535Z,103064.94
2023-02-13T21:37:03.142Z,103062.34
2023-02-13T21:39:29.813Z,103062.34
2023-02-13T21:41:56.509Z,103059.78
2023-02-13T21:44:23.097Z,103050.19
2023-02-13T21:46:50.569Z,103056.25
2023-02-13T21:49:18.862Z,103056.13
2023-02-13T21:51:45.421Z,103061.28
2023-02-13T21:54:12.307Z,103054.31
2023-02-13T21:56:41.309Z,103051.72
2023-02-13T21:59:07.972Z,103063.88
2023-02-13T22:01:36.870Z,103066.44
2023-02-13T22:04:07.985Z,103064.94
2023-02-13T22:06:36.836Z,103059.00
2023-02-13T22:09:07.838Z,103059.13
2023-02-13T22:11:35.705Z,103060.81
2023-02-13T22:14:04.189Z,103059.25
2023-02-13T22:16:32.424Z,103062.88
2023-02-13T22:19:00.105Z,103067.41
2023-02-13T22:21:28.824Z,103065.84
2023-02-13T22:23:55.872Z,103061.72
2023-02-13T22:26:34.350Z,103063.41
2023-02-13T22:29:06.576Z,103067.03
2023-02-13T22:31:33.743Z,103073.13
2023-02-13T22:34:05.024Z,103067.31
2023-02-13T22:36:40.494Z,103073.38
2023-02-13T22:39:08.812Z,103074.28
2023-02-13T22:41:35.691Z,103073.38
2023-02-13T22:44:02.547Z,103067.44
2023-02-13T22:46:31.366Z,103079.44
2023-02-13T22:49:00.830Z,103079.56
2023-02-13T22:51:31.323Z,103077.91
2023-02-13T22:53:58.727Z,103086.69
2023-02-13T22:56:26.887Z,103085.66
2023-02-13T22:58:53.530Z,103080.59
2023-02-13T23:01:30.553Z,103084.09
2023-02-13T23:03:57.603Z,103089.38
2023-02-13T23:06:25.231Z,103085.00
2023-02-13T23:08:54.724Z,103085.78
2023-02-13T23:11:44.374Z,103092.88
2023-02-13T23:14:11.480Z,103088.47
2023-02-13T23:16:57.644Z,103095.31
2023-02-13T23:19:25.559Z,103085.00
2023-02-13T23:21:52.052Z,103088.34
2023-02-13T23:24:18.650Z,103084.88
2023-02-13T23:26:45.219Z,103088.22
2023-02-13T23:29:11.958Z,103094.16
2023-02-13T23:31:38.495Z,103093.13
2023-02-13T23:34:05.272Z,103094.38
2023-02-13T23:36:31.860Z,103097.47
2023-02-13T23:38:58.426Z,103096.56
2023-02-13T23:41:25.128Z,103097.19
2023-02-13T23:43:51.798Z,103097.84
2023-02-13T23:46:18.432Z,103097.06
2023-02-13T23:48:46.206Z,103087.66
2023-02-13T23:51:12.782Z,103089.97
2023-02-13T23:53:39.434Z,103086.63
2023-02-13T23:56:06.576Z,103096.81
2023-02-13T23:58:33.139Z,103084.81
